sensor_id;sensor_type;location;lat;lon;timestamp;temperature;humidity
19340;HTU21D;9804;52.350;6.684;2023-07-29T00:01:43;21.65;118.99
19340;HTU21D;9804;52.350;6.684;2023-07-29T00:04:09;21.66;118.99
19340;HTU21D;9804;52.350;6.684;2023-07-29T00:06:35;21.72;118.99
19340;HTU21D;9804;52.350;6.684;2023-07-29T00:09:00;21.78;118.99
19340;HTU21D;9804;52.350;6.684;2023-07-29T00:11:25;21.83;118.99
19340;HTU21D;9804;52.350;6.684;2023-07-29T00:13:51;21.85;118.99
19340;HTU21D;9804;52.350;6.684;2023-07-29T00:16:18;21.83;118.99
19340;HTU21D;9804;52.350;6.684;2023-07-29T00:18:43;21.66;118.99
19340;HTU21D;9804;52.350;6.684;2023-07-29T00:21:09;21.60;118.99
19340;HTU21D;9804;52.350;6.684;2023-07-29T00:23:34;21.63;118.99
19340;HTU21D;9804;52.350;6.684;2023-07-29T00:26:00;21.53;118.99
19340;HTU21D;9804;52.350;6.684;2023-07-29T00:28:25;21.55;118.99
19340;HTU21D;9804;52.350;6.684;2023-07-29T00:30:50;21.54;118.99
19340;HTU21D;9804;52.350;6.684;2023-07-29T00:33:16;21.48;118.99
19340;HTU21D;9804;52.350;6.684;2023-07-29T00:35:41;21.43;118.99
19340;HTU21D;9804;52.350;6.684;2023-07-29T00:38:06;21.37;118.99
19340;HTU21D;9804;52.350;6.684;2023-07-29T00:40:35;21.43;118.99
19340;HTU21D;9804;52.350;6.684;2023-07-29T00:43:00;21.49;118.99
19340;HTU21D;9804;52.350;6.684;2023-07-29T00:45:26;21.58;118.99
19340;HTU21D;9804;52.350;6.684;2023-07-29T00:47:52;21.53;118.99
19340;HTU21D;9804;52.350;6.684;2023-07-29T00:50:18;21.53;118.99
19340;HTU21D;9804;52.350;6.684;2023-07-29T00:52:43;21.48;118.99
19340;HTU21D;9804;52.350;6.684;2023-07-29T00:55:09;21.32;118.99
19340;HTU21D;9804;52.350;6.684;2023-07-29T00:57:35;21.22;118.99
19340;HTU21D;9804;52.350;6.684;2023-07-29T01:00:01;21.20;118.99
19340;HTU21D;9804;52.350;6.684;2023-07-29T01:02:26;21.23;118.99
19340;HTU21D;9804;52.350;6.684;2023-07-29T01:05:01;21.16;118.99
19340;HTU21D;9804;52.350;6.684;2023-07-29T01:07:36;21.14;118.99
19340;HTU21D;9804;52.350;6.684;2023-07-29T01:10:15;21.06;118.99
19340;HTU21D;9804;52.350;6.684;2023-07-29T01:12:56;20.99;118.99
19340;HTU21D;9804;52.350;6.684;2023-07-29T01:15:31;20.94;118.99
19340;HTU21D;9804;52.350;6.684;2023-07-29T01:18:05;20.99;118.99
19340;HTU21D;9804;52.350;6.684;2023-07-29T01:20:33;20.96;118.99
19340;HTU21D;9804;52.350;6.684;2023-07-29T01:22:59;20.91;118.99
19340;HTU21D;9804;52.350;6.684;2023-07-29T01:25:24;20.96;118.99
19340;HTU21D;9804;52.350;6.684;2023-07-29T01:27:51;21.02;118.99
19340;HTU21D;9804;52.350;6.684;2023-07-29T01:30:17;21.03;118.99
19340;HTU21D;9804;52.350;6.684;2023-07-29T01:35:31;21.08;118.99
19340;HTU21D;9804;52.350;6.684;2023-07-29T01:38:08;21.04;118.99
19340;HTU21D;9804;52.350;6.684;2023-07-29T01:40:35;21.06;118.99
19340;HTU21D;9804;52.350;6.684;2023-07-29T01:43:01;20.96;118.99
19340;HTU21D;9804;52.350;6.684;2023-07-29T01:45:26;20.85;118.99
19340;HTU21D;9804;52.350;6.684;2023-07-29T01:47:52;20.78;118.99
19340;HTU21D;9804;52.350;6.684;2023-07-29T01:50:17;20.76;118.99
19340;HTU21D;9804;52.350;6.684;2023-07-29T01:52:43;20.76;118.99
19340;HTU21D;9804;52.350;6.684;2023-07-29T01:55:08;20.69;118.99
19340;HTU21D;9804;52.350;6.684;2023-07-29T01:57:34;20.56;118.99
19340;HTU21D;9804;52.350;6.684;2023-07-29T01:59:59;20.57;118.99
19340;HTU21D;9804;52.350;6.684;2023-07-29T02:02:25;20.48;118.99
19340;HTU21D;9804;52.350;6.684;2023-07-29T02:04:50;20.51;118.99
19340;HTU21D;9804;52.350;6.684;2023-07-29T02:07:18;20.49;118.99
19340;HTU21D;9804;52.350;6.684;2023-07-29T02:09:44;20.46;118.99
19340;HTU21D;9804;52.350;6.684;2023-07-29T02:12:09;20.48;118.99
19340;HTU21D;9804;52.350;6.684;2023-07-29T02:14:35;20.45;118.99
19340;HTU21D;9804;52.350;6.684;2023-07-29T02:17:00;20.40;118.99
19340;HTU21D;9804;52.350;6.684;2023-07-29T02:19:25;20.37;118.99
19340;HTU21D;9804;52.350;6.684;2023-07-29T02:21:51;20.30;118.99
19340;HTU21D;9804;52.350;6.684;2023-07-29T02:24:16;20.21;118.99
19340;HTU21D;9804;52.350;6.684;2023-07-29T02:26:41;20.12;118.99
19340;HTU21D;9804;52.350;6.684;2023-07-29T02:29:07;20.11;118.99
19340;HTU21D;9804;52.350;6.684;2023-07-29T02:31:32;20.13;118.99
19340;HTU21D;9804;52.350;6.684;2023-07-29T02:34:00;20.15;118.99
19340;HTU21D;9804;52.350;6.684;2023-07-29T02:36:25;20.17;118.99
19340;HTU21D;9804;52.350;6.684;2023-07-29T02:38:50;20.24;118.99
19340;HTU21D;9804;52.350;6.684;2023-07-29T02:41:16;20.22;118.99
19340;HTU21D;9804;52.350;6.684;2023-07-29T02:43:42;20.32;118.99
19340;HTU21D;9804;52.350;6.684;2023-07-29T02:46:08;20.36;118.99
19340;HTU21D;9804;52.350;6.684;2023-07-29T02:48:34;20.46;118.99
19340;HTU21D;9804;52.350;6.684;2023-07-29T02:50:59;20.59;118.99
19340;HTU21D;9804;52.350;6.684;2023-07-29T02:53:25;20.61;118.99
19340;HTU21D;9804;52.350;6.684;2023-07-29T02:55:50;20.69;118.99
19340;HTU21D;9804;52.350;6.684;2023-07-29T02:58:16;20.73;118.99
19340;HTU21D;9804;52.350;6.684;2023-07-29T03:00:41;20.78;118.99
19340;HTU21D;9804;52.350;6.684;2023-07-29T03:03:07;20.78;118.99
19340;HTU21D;9804;52.350;6.684;2023-07-29T03:05:33;20.79;118.99
19340;HTU21D;9804;52.350;6.684;2023-07-29T03:07:59;20.69;118.99
19340;HTU21D;9804;52.350;6.684;2023-07-29T03:10:24;20.75;118.99
19340;HTU21D;9804;52.350;6.684;2023-07-29T03:12:50;20.71;118.99
19340;HTU21D;9804;52.350;6.684;2023-07-29T03:15:16;20.69;118.99
19340;HTU21D;9804;52.350;6.684;2023-07-29T03:17:41;20.73;118.99
19340;HTU21D;9804;52.350;6.684;2023-07-29T03:20:07;20.71;118.99
19340;HTU21D;9804;52.350;6.684;2023-07-29T03:22:33;20.73;118.99
19340;HTU21D;9804;52.350;6.684;2023-07-29T03:24:58;20.69;118.99
19340;HTU21D;9804;52.350;6.684;2023-07-29T03:27:23;20.75;118.99
19340;HTU21D;9804;52.350;6.684;2023-07-29T03:29:49;20.66;118.99
19340;HTU21D;9804;52.350;6.684;2023-07-29T03:32:14;20.71;118.99
19340;HTU21D;9804;52.350;6.684;2023-07-29T03:34:39;20.70;118.99
19340;HTU21D;9804;52.350;6.684;2023-07-29T03:37:05;20.70;118.99
19340;HTU21D;9804;52.350;6.684;2023-07-29T03:39:31;20.70;118.99
19340;HTU21D;9804;52.350;6.684;2023-07-29T03:41:57;20.64;118.99
19340;HTU21D;9804;52.350;6.684;2023-07-29T03:44:22;20.61;118.99
19340;HTU21D;9804;52.350;6.684;2023-07-29T03:46:47;20.62;118.99
19340;HTU21D;9804;52.350;6.684;2023-07-29T03:49:13;20.61;118.99
19340;HTU21D;9804;52.350;6.684;2023-07-29T03:51:38;20.51;118.99
19340;HTU21D;9804;52.350;6.684;2023-07-29T03:54:03;20.45;118.99
19340;HTU21D;9804;52.350;6.684;2023-07-29T03:56:29;20.47;118.99
19340;HTU21D;9804;52.350;6.684;2023-07-29T03:59:02;20.43;118.99
19340;HTU21D;9804;52.350;6.684;2023-07-29T04:01:28;20.35;118.99
19340;HTU21D;9804;52.350;6.684;2023-07-29T04:03:53;20.46;118.99
19340;HTU21D;9804;52.350;6.684;2023-07-29T04:06:20;20.53;118.99
19340;HTU21D;9804;52.350;6.684;2023-07-29T04:08:45;20.58;118.99
19340;HTU21D;9804;52.350;6.684;2023-07-29T04:11:11;20.62;118.99
19340;HTU21D;9804;52.350;6.684;2023-07-29T04:13:36;20.64;118.99
19340;HTU21D;9804;52.350;6.684;2023-07-29T04:16:03;20.68;118.99
19340;HTU21D;9804;52.350;6.684;2023-07-29T04:18:29;20.62;118.99
19340;HTU21D;9804;52.350;6.684;2023-07-29T04:20:54;20.59;118.99
19340;HTU21D;9804;52.350;6.684;2023-07-29T04:23:19;20.64;118.99
19340;HTU21D;9804;52.350;6.684;2023-07-29T04:25:45;20.61;118.99
19340;HTU21D;9804;52.350;6.684;2023-07-29T04:28:10;20.61;118.99
19340;HTU21D;9804;52.350;6.684;2023-07-29T04:30:36;20.66;118.99
19340;HTU21D;9804;52.350;6.684;2023-07-29T04:33:01;20.69;118.99
19340;HTU21D;9804;52.350;6.684;2023-07-29T04:35:26;20.70;118.99
19340;HTU21D;9804;52.350;6.684;2023-07-29T04:37:52;20.70;118.99
19340;HTU21D;9804;52.350;6.684;2023-07-29T04:40:17;20.65;118.99
19340;HTU21D;9804;52.350;6.684;2023-07-29T04:42:42;20.71;118.99
19340;HTU21D;9804;52.350;6.684;2023-07-29T04:45:08;20.64;118.99
19340;HTU21D;9804;52.350;6.684;2023-07-29T04:47:33;20.75;118.99
19340;HTU21D;9804;52.350;6.684;2023-07-29T04:49:59;20.81;118.99
19340;HTU21D;9804;52.350;6.684;2023-07-29T04:52:24;20.86;118.99
19340;HTU21D;9804;52.350;6.684;2023-07-29T04:54:50;20.91;118.99
19340;HTU21D;9804;52.350;6.684;2023-07-29T04:57:16;20.94;118.99
19340;HTU21D;9804;52.350;6.684;2023-07-29T04:59:41;20.74;118.99
19340;HTU21D;9804;52.350;6.684;2023-07-29T05:02:06;20.88;118.99
19340;HTU21D;9804;52.350;6.684;2023-07-29T05:04:32;20.95;118.99
19340;HTU21D;9804;52.350;6.684;2023-07-29T05:06:57;20.99;118.99
19340;HTU21D;9804;52.350;6.684;2023-07-29T05:09:23;20.92;118.99
19340;HTU21D;9804;52.350;6.684;2023-07-29T05:11:48;20.98;118.99
19340;HTU21D;9804;52.350;6.684;2023-07-29T05:14:15;21.13;118.99
19340;HTU21D;9804;52.350;6.684;2023-07-29T05:16:40;21.01;118.99
19340;HTU21D;9804;52.350;6.684;2023-07-29T05:19:06;21.11;118.99
19340;HTU21D;9804;52.350;6.684;2023-07-29T05:21:31;21.21;118.99
19340;HTU21D;9804;52.350;6.684;2023-07-29T05:23:57;21.14;118.99
19340;HTU21D;9804;52.350;6.684;2023-07-29T05:26:23;21.10;118.99
19340;HTU21D;9804;52.350;6.684;2023-07-29T05:28:48;21.28;118.99
19340;HTU21D;9804;52.350;6.684;2023-07-29T05:31:13;21.04;118.99
19340;HTU21D;9804;52.350;6.684;2023-07-29T05:33:39;21.17;118.99
19340;HTU21D;9804;52.350;6.684;2023-07-29T05:36:05;21.22;118.99
19340;HTU21D;9804;52.350;6.684;2023-07-29T05:38:30;21.14;118.99
19340;HTU21D;9804;52.350;6.684;2023-07-29T05:40:56;20.99;118.99
19340;HTU21D;9804;52.350;6.684;2023-07-29T05:43:21;21.14;118.99
19340;HTU21D;9804;52.350;6.684;2023-07-29T05:45:46;21.23;118.99
19340;HTU21D;9804;52.350;6.684;2023-07-29T05:48:12;21.21;118.99
19340;HTU21D;9804;52.350;6.684;2023-07-29T05:50:37;21.23;118.99
19340;HTU21D;9804;52.350;6.684;2023-07-29T05:53:03;21.23;118.99
19340;HTU21D;9804;52.350;6.684;2023-07-29T05:55:28;21.25;118.99
19340;HTU21D;9804;52.350;6.684;2023-07-29T05:57:54;21.16;118.99
19340;HTU21D;9804;52.350;6.684;2023-07-29T06:00:20;21.19;118.99
19340;HTU21D;9804;52.350;6.684;2023-07-29T06:02:45;21.31;118.99
19340;HTU21D;9804;52.350;6.684;2023-07-29T06:05:11;21.48;118.99
19340;HTU21D;9804;52.350;6.684;2023-07-29T06:07:36;21.46;118.99
19340;HTU21D;9804;52.350;6.684;2023-07-29T06:10:02;21.40;118.99
19340;HTU21D;9804;52.350;6.684;2023-07-29T06:12:27;21.47;118.99
19340;HTU21D;9804;52.350;6.684;2023-07-29T06:14:53;21.35;118.99
19340;HTU21D;9804;52.350;6.684;2023-07-29T06:17:18;21.65;118.99
19340;HTU21D;9804;52.350;6.684;2023-07-29T06:19:43;21.57;118.99
19340;HTU21D;9804;52.350;6.684;2023-07-29T06:22:09;21.67;118.99
19340;HTU21D;9804;52.350;6.684;2023-07-29T06:24:35;21.80;118.99
19340;HTU21D;9804;52.350;6.684;2023-07-29T06:27:01;21.72;104.56
19340;HTU21D;9804;52.350;6.684;2023-07-29T06:29:26;21.76;106.78
19340;HTU21D;9804;52.350;6.684;2023-07-29T06:31:51;21.74;118.99
19340;HTU21D;9804;52.350;6.684;2023-07-29T06:34:20;21.75;65.40
19340;HTU21D;9804;52.350;6.684;2023-07-29T06:36:45;21.69;29.56
19340;HTU21D;9804;52.350;6.684;2023-07-29T06:39:10;21.57;78.08
19340;HTU21D;9804;52.350;6.684;2023-07-29T06:41:36;21.49;18.66
19340;HTU21D;9804;52.350;6.684;2023-07-29T06:44:01;21.43;55.92
19340;HTU21D;9804;52.350;6.684;2023-07-29T06:46:27;21.35;67.29
19340;HTU21D;9804;52.350;6.684;2023-07-29T06:48:52;21.75;10.01
19340;HTU21D;9804;52.350;6.684;2023-07-29T06:51:17;21.69;-6.00
19340;HTU21D;9804;52.350;6.684;2023-07-29T06:53:43;21.73;-6.00
19340;HTU21D;9804;52.350;6.684;2023-07-29T06:56:08;21.66;-6.00
19340;HTU21D;9804;52.350;6.684;2023-07-29T06:58:34;21.46;-6.00
19340;HTU21D;9804;52.350;6.684;2023-07-29T07:00:59;21.40;-6.00
19340;HTU21D;9804;52.350;6.684;2023-07-29T07:03:25;21.57;-6.00
19340;HTU21D;9804;52.350;6.684;2023-07-29T07:05:50;21.51;-6.00
19340;HTU21D;9804;52.350;6.684;2023-07-29T07:08:16;21.54;-6.00
19340;HTU21D;9804;52.350;6.684;2023-07-29T07:10:41;21.59;-6.00
19340;HTU21D;9804;52.350;6.684;2023-07-29T07:13:07;21.97;-6.00
19340;HTU21D;9804;52.350;6.684;2023-07-29T07:15:32;21.93;-6.00
19340;HTU21D;9804;52.350;6.684;2023-07-29T07:17:57;21.72;-6.00
19340;HTU21D;9804;52.350;6.684;2023-07-29T07:20:23;21.48;-6.00
19340;HTU21D;9804;52.350;6.684;2023-07-29T07:22:48;22.12;-6.00
19340;HTU21D;9804;52.350;6.684;2023-07-29T07:25:13;22.72;-6.00
19340;HTU21D;9804;52.350;6.684;2023-07-29T07:27:39;22.70;-6.00
19340;HTU21D;9804;52.350;6.684;2023-07-29T07:30:04;22.34;-6.00
19340;HTU21D;9804;52.350;6.684;2023-07-29T07:32:30;22.73;-6.00
19340;HTU21D;9804;52.350;6.684;2023-07-29T07:34:55;22.63;-6.00
19340;HTU21D;9804;52.350;6.684;2023-07-29T07:37:21;22.67;-6.00
19340;HTU21D;9804;52.350;6.684;2023-07-29T07:39:46;22.68;-6.00
19340;HTU21D;9804;52.350;6.684;2023-07-29T07:42:12;22.47;-6.00
19340;HTU21D;9804;52.350;6.684;2023-07-29T07:44:37;22.49;-6.00
19340;HTU21D;9804;52.350;6.684;2023-07-29T07:47:03;22.84;-6.00
19340;HTU21D;9804;52.350;6.684;2023-07-29T07:49:28;23.16;-6.00
19340;HTU21D;9804;52.350;6.684;2023-07-29T07:51:54;23.15;-6.00
19340;HTU21D;9804;52.350;6.684;2023-07-29T07:54:19;23.21;-6.00
19340;HTU21D;9804;52.350;6.684;2023-07-29T07:56:45;23.09;-6.00
19340;HTU21D;9804;52.350;6.684;2023-07-29T07:59:10;23.35;-6.00
19340;HTU21D;9804;52.350;6.684;2023-07-29T08:01:39;23.31;-6.00
19340;HTU21D;9804;52.350;6.684;2023-07-29T08:04:05;23.51;-6.00
19340;HTU21D;9804;52.350;6.684;2023-07-29T08:06:31;23.49;-6.00
19340;HTU21D;9804;52.350;6.684;2023-07-29T08:08:56;23.57;-6.00
19340;HTU21D;9804;52.350;6.684;2023-07-29T08:11:22;23.83;-6.00
19340;HTU21D;9804;52.350;6.684;2023-07-29T08:13:47;23.65;-6.00
19340;HTU21D;9804;52.350;6.684;2023-07-29T08:16:13;23.97;-6.00
19340;HTU21D;9804;52.350;6.684;2023-07-29T08:18:38;24.10;-6.00
19340;HTU21D;9804;52.350;6.684;2023-07-29T08:21:04;23.84;-6.00
19340;HTU21D;9804;52.350;6.684;2023-07-29T08:23:30;24.02;-6.00
19340;HTU21D;9804;52.350;6.684;2023-07-29T08:25:57;24.18;-6.00
19340;HTU21D;9804;52.350;6.684;2023-07-29T08:28:30;24.06;-6.00
19340;HTU21D;9804;52.350;6.684;2023-07-29T08:30:56;23.96;-6.00
19340;HTU21D;9804;52.350;6.684;2023-07-29T08:33:22;23.67;-6.00
19340;HTU21D;9804;52.350;6.684;2023-07-29T08:35:47;23.98;-6.00
19340;HTU21D;9804;52.350;6.684;2023-07-29T08:38:12;23.94;-6.00
19340;HTU21D;9804;52.350;6.684;2023-07-29T08:40:43;23.76;-6.00
19340;HTU21D;9804;52.350;6.684;2023-07-29T08:43:12;23.64;-6.00
19340;HTU21D;9804;52.350;6.684;2023-07-29T08:45:39;23.98;-6.00
19340;HTU21D;9804;52.350;6.684;2023-07-29T08:48:08;24.09;-6.00
19340;HTU21D;9804;52.350;6.684;2023-07-29T08:50:36;24.05;-6.00
19340;HTU21D;9804;52.350;6.684;2023-07-29T08:53:04;24.50;-6.00
19340;HTU21D;9804;52.350;6.684;2023-07-29T08:55:31;24.19;-6.00
19340;HTU21D;9804;52.350;6.684;2023-07-29T08:57:58;24.27;-6.00
19340;HTU21D;9804;52.350;6.684;2023-07-29T09:00:25;24.46;-6.00
19340;HTU21D;9804;52.350;6.684;2023-07-29T09:02:51;25.01;-6.00
19340;HTU21D;9804;52.350;6.684;2023-07-29T09:05:16;24.87;-6.00
19340;HTU21D;9804;52.350;6.684;2023-07-29T09:07:42;24.77;-6.00
19340;HTU21D;9804;52.350;6.684;2023-07-29T09:10:09;24.76;-6.00
19340;HTU21D;9804;52.350;6.684;2023-07-29T09:12:38;24.87;-6.00
19340;HTU21D;9804;52.350;6.684;2023-07-29T09:15:04;24.77;-6.00
19340;HTU21D;9804;52.350;6.684;2023-07-29T09:17:35;24.64;-6.00
19340;HTU21D;9804;52.350;6.684;2023-07-29T09:20:00;24.64;-6.00
19340;HTU21D;9804;52.350;6.684;2023-07-29T09:22:27;24.63;-6.00
19340;HTU21D;9804;52.350;6.684;2023-07-29T09:24:52;24.70;-6.00
19340;HTU21D;9804;52.350;6.684;2023-07-29T09:27:28;24.66;-6.00
19340;HTU21D;9804;52.350;6.684;2023-07-29T09:29:57;24.66;-6.00
19340;HTU21D;9804;52.350;6.684;2023-07-29T09:32:24;24.47;-6.00
19340;HTU21D;9804;52.350;6.684;2023-07-29T09:34:50;24.70;-6.00
19340;HTU21D;9804;52.350;6.684;2023-07-29T09:37:25;24.73;-6.00
19340;HTU21D;9804;52.350;6.684;2023-07-29T09:39:51;24.53;-6.00
19340;HTU21D;9804;52.350;6.684;2023-07-29T09:42:21;24.36;-6.00
19340;HTU21D;9804;52.350;6.684;2023-07-29T09:44:49;24.68;-6.00
19340;HTU21D;9804;52.350;6.684;2023-07-29T09:47:22;24.87;-6.00
19340;HTU21D;9804;52.350;6.684;2023-07-29T09:49:49;24.51;-6.00
19340;HTU21D;9804;52.350;6.684;2023-07-29T09:52:16;24.71;-6.00
19340;HTU21D;9804;52.350;6.684;2023-07-29T09:54:43;25.03;-6.00
19340;HTU21D;9804;52.350;6.684;2023-07-29T09:57:09;24.97;-6.00
19340;HTU21D;9804;52.350;6.684;2023-07-29T09:59:35;24.80;-6.00
19340;HTU21D;9804;52.350;6.684;2023-07-29T10:02:00;24.28;-6.00
19340;HTU21D;9804;52.350;6.684;2023-07-29T10:04:26;24.32;-6.00
19340;HTU21D;9804;52.350;6.684;2023-07-29T10:06:52;24.35;-6.00
19340;HTU21D;9804;52.350;6.684;2023-07-29T10:09:19;24.36;-6.00
19340;HTU21D;9804;52.350;6.684;2023-07-29T10:11:45;24.77;-6.00
19340;HTU21D;9804;52.350;6.684;2023-07-29T10:14:11;24.90;-6.00
19340;HTU21D;9804;52.350;6.684;2023-07-29T10:16:36;24.83;-6.00
19340;HTU21D;9804;52.350;6.684;2023-07-29T10:19:04;25.39;-6.00
19340;HTU21D;9804;52.350;6.684;2023-07-29T10:21:30;25.27;-6.00
19340;HTU21D;9804;52.350;6.684;2023-07-29T10:24:00;25.65;-6.00
19340;HTU21D;9804;52.350;6.684;2023-07-29T10:26:28;25.27;-6.00
19340;HTU21D;9804;52.350;6.684;2023-07-29T10:28:57;25.45;-6.00
19340;HTU21D;9804;52.350;6.684;2023-07-29T10:31:27;25.71;-6.00
19340;HTU21D;9804;52.350;6.684;2023-07-29T10:33:54;26.16;-6.00
19340;HTU21D;9804;52.350;6.684;2023-07-29T10:36:20;26.78;-6.00
19340;HTU21D;9804;52.350;6.684;2023-07-29T10:38:45;26.82;-6.00
19340;HTU21D;9804;52.350;6.684;2023-07-29T10:41:11;26.84;-6.00
19340;HTU21D;9804;52.350;6.684;2023-07-29T10:43:37;26.63;-6.00
19340;HTU21D;9804;52.350;6.684;2023-07-29T10:46:21;26.48;-6.00
19340;HTU21D;9804;52.350;6.684;2023-07-29T10:54:01;26.52;-6.00
19340;HTU21D;9804;52.350;6.684;2023-07-29T10:56:28;25.78;-6.00
19340;HTU21D;9804;52.350;6.684;2023-07-29T11:01:42;25.74;-6.00
19340;HTU21D;9804;52.350;6.684;2023-07-29T11:12:48;25.38;-6.00
19340;HTU21D;9804;52.350;6.684;2023-07-29T11:15:23;25.50;-6.00
19340;HTU21D;9804;52.350;6.684;2023-07-29T11:17:52;25.89;-6.00
19340;HTU21D;9804;52.350;6.684;2023-07-29T11:20:19;25.82;-6.00
19340;HTU21D;9804;52.350;6.684;2023-07-29T11:22:45;25.81;-6.00
19340;HTU21D;9804;52.350;6.684;2023-07-29T11:25:14;25.30;-6.00
19340;HTU21D;9804;52.350;6.684;2023-07-29T11:27:40;25.98;-6.00
19340;HTU21D;9804;52.350;6.684;2023-07-29T11:30:08;25.80;-6.00
19340;HTU21D;9804;52.350;6.684;2023-07-29T11:32:34;25.68;-6.00
19340;HTU21D;9804;52.350;6.684;2023-07-29T11:35:08;25.42;-6.00
19340;HTU21D;9804;52.350;6.684;2023-07-29T11:37:36;25.35;-6.00
19340;HTU21D;9804;52.350;6.684;2023-07-29T11:40:02;25.21;-6.00
19340;HTU21D;9804;52.350;6.684;2023-07-29T11:42:28;25.15;-6.00
19340;HTU21D;9804;52.350;6.684;2023-07-29T11:44:57;24.83;-6.00
19340;HTU21D;9804;52.350;6.684;2023-07-29T11:47:23;24.63;-6.00
19340;HTU21D;9804;52.350;6.684;2023-07-29T11:49:48;24.57;-6.00
19340;HTU21D;9804;52.350;6.684;2023-07-29T11:52:14;24.71;-6.00
19340;HTU21D;9804;52.350;6.684;2023-07-29T11:54:44;25.44;-6.00
19340;HTU21D;9804;52.350;6.684;2023-07-29T11:57:09;25.68;-6.00
19340;HTU21D;9804;52.350;6.684;2023-07-29T11:59:36;25.89;-6.00
19340;HTU21D;9804;52.350;6.684;2023-07-29T12:02:06;25.60;-6.00
19340;HTU21D;9804;52.350;6.684;2023-07-29T12:04:34;25.97;-6.00
19340;HTU21D;9804;52.350;6.684;2023-07-29T12:07:00;25.67;-6.00
19340;HTU21D;9804;52.350;6.684;2023-07-29T12:09:27;25.74;-6.00
19340;HTU21D;9804;52.350;6.684;2023-07-29T12:11:53;25.67;-6.00
19340;HTU21D;9804;52.350;6.684;2023-07-29T12:14:18;25.50;-6.00
19340;HTU21D;9804;52.350;6.684;2023-07-29T12:16:48;26.43;-6.00
19340;HTU21D;9804;52.350;6.684;2023-07-29T12:19:15;26.73;-6.00
19340;HTU21D;9804;52.350;6.684;2023-07-29T12:21:44;26.89;-6.00
19340;HTU21D;9804;52.350;6.684;2023-07-29T12:24:12;27.17;-6.00
19340;HTU21D;9804;52.350;6.684;2023-07-29T12:26:37;27.21;-6.00
19340;HTU21D;9804;52.350;6.684;2023-07-29T12:29:13;26.34;-6.00
19340;HTU21D;9804;52.350;6.684;2023-07-29T12:31:39;26.20;-6.00
19340;HTU21D;9804;52.350;6.684;2023-07-29T12:34:04;26.10;-6.00
19340;HTU21D;9804;52.350;6.684;2023-07-29T12:36:50;25.84;-6.00
19340;HTU21D;9804;52.350;6.684;2023-07-29T12:39:29;26.17;-6.00
19340;HTU21D;9804;52.350;6.684;2023-07-29T12:41:56;26.40;-6.00
19340;HTU21D;9804;52.350;6.684;2023-07-29T12:44:23;25.58;-6.00
19340;HTU21D;9804;52.350;6.684;2023-07-29T12:46:49;25.83;-6.00
19340;HTU21D;9804;52.350;6.684;2023-07-29T12:49:14;25.53;-6.00
19340;HTU21D;9804;52.350;6.684;2023-07-29T12:51:40;25.94;-6.00
19340;HTU21D;9804;52.350;6.684;2023-07-29T12:54:06;25.40;-6.00
19340;HTU21D;9804;52.350;6.684;2023-07-29T12:56:32;25.90;-6.00
19340;HTU21D;9804;52.350;6.684;2023-07-29T12:58:58;25.63;-6.00
19340;HTU21D;9804;52.350;6.684;2023-07-29T13:01:24;25.38;-6.00
19340;HTU21D;9804;52.350;6.684;2023-07-29T13:03:50;25.19;-6.00
19340;HTU21D;9804;52.350;6.684;2023-07-29T13:06:16;24.98;-6.00
19340;HTU21D;9804;52.350;6.684;2023-07-29T13:08:42;25.58;-6.00
19340;HTU21D;9804;52.350;6.684;2023-07-29T13:11:08;25.37;-6.00
19340;HTU21D;9804;52.350;6.684;2023-07-29T13:13:33;25.34;-6.00
19340;HTU21D;9804;52.350;6.684;2023-07-29T13:15:59;24.87;-6.00
19340;HTU21D;9804;52.350;6.684;2023-07-29T13:18:25;25.16;-6.00
19340;HTU21D;9804;52.350;6.684;2023-07-29T13:20:50;24.84;-6.00
19340;HTU21D;9804;52.350;6.684;2023-07-29T13:23:16;25.29;-6.00
19340;HTU21D;9804;52.350;6.684;2023-07-29T13:25:41;25.19;-6.00
19340;HTU21D;9804;52.350;6.684;2023-07-29T13:28:07;25.60;-6.00
19340;HTU21D;9804;52.350;6.684;2023-07-29T13:30:32;26.06;-6.00
19340;HTU21D;9804;52.350;6.684;2023-07-29T13:32:58;26.34;-6.00
19340;HTU21D;9804;52.350;6.684;2023-07-29T13:35:23;26.22;-6.00
19340;HTU21D;9804;52.350;6.684;2023-07-29T13:37:49;26.32;-6.00
19340;HTU21D;9804;52.350;6.684;2023-07-29T13:40:14;26.01;-6.00
19340;HTU21D;9804;52.350;6.684;2023-07-29T13:42:40;26.53;-6.00
19340;HTU21D;9804;52.350;6.684;2023-07-29T13:45:05;26.63;-6.00
19340;HTU21D;9804;52.350;6.684;2023-07-29T13:47:31;27.24;-6.00
19340;HTU21D;9804;52.350;6.684;2023-07-29T13:49:57;27.24;-6.00
19340;HTU21D;9804;52.350;6.684;2023-07-29T13:52:22;27.11;-6.00
19340;HTU21D;9804;52.350;6.684;2023-07-29T13:54:47;27.28;-6.00
19340;HTU21D;9804;52.350;6.684;2023-07-29T13:57:13;27.28;-6.00
19340;HTU21D;9804;52.350;6.684;2023-07-29T13:59:38;27.47;-6.00
19340;HTU21D;9804;52.350;6.684;2023-07-29T14:02:05;27.65;-6.00
19340;HTU21D;9804;52.350;6.684;2023-07-29T14:04:31;27.71;-6.00
19340;HTU21D;9804;52.350;6.684;2023-07-29T14:06:56;27.02;-6.00
19340;HTU21D;9804;52.350;6.684;2023-07-29T14:09:22;26.49;-6.00
19340;HTU21D;9804;52.350;6.684;2023-07-29T14:11:47;26.54;-6.00
19340;HTU21D;9804;52.350;6.684;2023-07-29T14:14:13;27.26;-6.00
19340;HTU21D;9804;52.350;6.684;2023-07-29T14:16:38;27.41;-6.00
19340;HTU21D;9804;52.350;6.684;2023-07-29T14:19:04;27.10;-6.00
19340;HTU21D;9804;52.350;6.684;2023-07-29T14:21:29;26.63;-6.00
19340;HTU21D;9804;52.350;6.684;2023-07-29T14:23:55;26.41;-6.00
19340;HTU21D;9804;52.350;6.684;2023-07-29T14:26:20;26.20;-6.00
19340;HTU21D;9804;52.350;6.684;2023-07-29T14:28:45;26.73;-6.00
19340;HTU21D;9804;52.350;6.684;2023-07-29T14:31:11;26.77;-6.00
19340;HTU21D;9804;52.350;6.684;2023-07-29T14:33:36;27.28;-6.00
19340;HTU21D;9804;52.350;6.684;2023-07-29T14:36:02;27.26;-6.00
19340;HTU21D;9804;52.350;6.684;2023-07-29T14:38:29;27.90;-6.00
19340;HTU21D;9804;52.350;6.684;2023-07-29T14:40:54;28.05;-6.00
19340;HTU21D;9804;52.350;6.684;2023-07-29T14:43:22;27.31;-6.00
19340;HTU21D;9804;52.350;6.684;2023-07-29T14:45:47;27.28;-6.00
19340;HTU21D;9804;52.350;6.684;2023-07-29T14:48:13;26.76;-6.00
19340;HTU21D;9804;52.350;6.684;2023-07-29T14:50:38;26.77;-6.00
19340;HTU21D;9804;52.350;6.684;2023-07-29T14:53:03;26.27;-6.00
19340;HTU21D;9804;52.350;6.684;2023-07-29T14:55:29;26.16;-6.00
19340;HTU21D;9804;52.350;6.684;2023-07-29T14:57:54;26.09;-6.00
19340;HTU21D;9804;52.350;6.684;2023-07-29T15:00:19;25.77;-6.00
19340;HTU21D;9804;52.350;6.684;2023-07-29T15:02:45;26.24;-6.00
19340;HTU21D;9804;52.350;6.684;2023-07-29T15:05:10;25.44;-6.00
19340;HTU21D;9804;52.350;6.684;2023-07-29T15:07:36;25.92;-6.00
19340;HTU21D;9804;52.350;6.684;2023-07-29T15:10:01;26.45;-6.00
19340;HTU21D;9804;52.350;6.684;2023-07-29T15:12:27;26.58;-6.00
19340;HTU21D;9804;52.350;6.684;2023-07-29T15:14:52;26.87;-6.00
19340;HTU21D;9804;52.350;6.684;2023-07-29T15:17:17;26.37;-6.00
19340;HTU21D;9804;52.350;6.684;2023-07-29T15:19:43;26.51;-6.00
19340;HTU21D;9804;52.350;6.684;2023-07-29T15:22:08;26.85;-6.00
19340;HTU21D;9804;52.350;6.684;2023-07-29T15:24:33;26.75;-6.00
19340;HTU21D;9804;52.350;6.684;2023-07-29T15:26:59;27.50;-6.00
19340;HTU21D;9804;52.350;6.684;2023-07-29T15:29:24;27.95;-6.00
19340;HTU21D;9804;52.350;6.684;2023-07-29T15:31:50;27.94;-6.00
19340;HTU21D;9804;52.350;6.684;2023-07-29T15:34:15;28.05;-6.00
19340;HTU21D;9804;52.350;6.684;2023-07-29T15:36:40;27.26;-6.00
19340;HTU21D;9804;52.350;6.684;2023-07-29T15:39:07;27.04;-6.00